createdAt,value
2018-11-23T00:00:20.504Z,102320.14
2018-11-23T00:02:49.496Z,102309.15
2018-11-23T00:05:17.990Z,102312.34
2018-11-23T00:10:39.652Z,102320.02
2018-11-23T00:16:00.976Z,102317.07
2018-11-23T00:18:29.287Z,102313.41
2018-11-23T00:20:57.491Z,102320.03
2018-11-23T00:23:26.426Z,102319.09
2018-11-23T00:25:56.300Z,102324.52
2018-11-23T00:28:25.457Z,102314.81
2018-11-23T00:30:55.249Z,102329.37
2018-11-23T00:33:25.777Z,102320.03
2018-11-23T00:35:54.594Z,102317.31
2018-11-23T00:38:23.892Z,102323.10
2018-11-23T00:40:52.524Z,102321.09
2018-11-23T00:43:27.511Z,102322.63
2018-11-23T00:45:55.796Z,102318.25
2018-11-23T00:48:25.919Z,102328.18
2018-11-23T00:50:54.210Z,102331.37
2018-11-23T00:53:23.034Z,102332.80
2018-11-23T00:55:51.606Z,102327.00
2018-11-23T00:58:20.204Z,102321.32
2018-11-23T01:00:48.537Z,102325.11
2018-11-23T01:03:17.730Z,102327.36
2018-11-23T01:05:45.987Z,102320.73
2018-11-23T01:08:16.589Z,102321.32
2018-11-23T01:10:44.954Z,102322.30
2018-11-23T01:13:14.401Z,102319.08
2018-11-23T01:15:43.490Z,102317.66
2018-11-23T01:18:12.207Z,102312.22
2018-11-23T01:20:40.934Z,102310.91
2018-11-23T01:23:09.706Z,102311.53
2018-11-23T01:25:37.964Z,102309.61
2018-11-23T01:28:06.381Z,102301.23
2018-11-23T01:30:34.622Z,102303.45
2018-11-23T01:33:02.818Z,102303.09
2018-11-23T01:35:31.042Z,102300.14
2018-11-23T01:37:59.298Z,102303.92
2018-11-23T01:40:28.897Z,102302.62
2018-11-23T01:42:57.766Z,102294.11
2018-11-23T01:45:25.993Z,102298.72
2018-11-23T01:47:54.323Z,102288.80
2018-11-23T01:50:24.993Z,102285.02
2018-11-23T01:52:53.840Z,102285.95
2018-11-23T01:55:22.788Z,102286.78
2018-11-23T01:57:51.221Z,102281.46
2018-11-23T02:00:20.615Z,102279.45
2018-11-23T02:02:49.636Z,102276.61
2018-11-23T02:05:17.938Z,102277.22
2018-11-23T02:07:46.351Z,102277.57
2018-11-23T02:10:16.347Z,102272.72
2018-11-23T02:12:45.648Z,102267.63
2018-11-23T02:15:17.673Z,102268.25
2018-11-23T02:17:47.711Z,102266.33
2018-11-23T02:20:17.066Z,102267.05
2018-11-23T02:22:45.385Z,102257.59
2018-11-23T02:25:13.688Z,102254.39
2018-11-23T02:27:41.893Z,102250.03
2018-11-23T02:30:14.997Z,102260.19
2018-11-23T02:32:43.461Z,102255.11
2018-11-23T02:35:11.860Z,102263.84
2018-11-23T02:37:40.370Z,102257.02
2018-11-23T02:40:16.743Z,102258.89
2018-11-23T02:42:45.097Z,102260.91
2018-11-23T02:45:16.781Z,102259.48
2018-11-23T02:47:46.813Z,102261.60
2018-11-23T02:50:16.536Z,102256.52
2018-11-23T02:52:45.659Z,102260.30
2018-11-23T02:55:15.692Z,102259.24
2018-11-23T02:57:44.795Z,102251.44
2018-11-23T03:00:16.895Z,102254.04
2018-11-23T03:02:45.867Z,102263.50
2018-11-23T03:05:16.856Z,102254.28
2018-11-23T03:07:45.173Z,102264.69
2018-11-23T03:10:14.251Z,102257.34
2018-11-23T03:12:43.153Z,102253.45
2018-11-23T03:15:14.045Z,102250.14
2018-11-23T03:17:42.877Z,102255.34
2018-11-23T03:20:13.621Z,102248.48
2018-11-23T03:22:41.851Z,102245.54
2018-11-23T03:25:11.005Z,102238.20
2018-11-23T03:27:39.323Z,102239.52
2018-11-23T03:30:17.481Z,102236.80
2018-11-23T03:32:46.863Z,102245.89
2018-11-23T03:35:15.140Z,102235.73
2018-11-23T03:37:45.480Z,102244.70
2018-11-23T03:40:14.045Z,102241.63
2018-11-23T03:42:42.369Z,102239.63
2018-11-23T03:45:11.725Z,102237.63
2018-11-23T03:47:40.429Z,102242.11
2018-11-23T03:50:09.842Z,102227.81
2018-11-23T03:52:38.066Z,102233.02
2018-11-23T03:55:06.654Z,102231.22
2018-11-23T03:57:35.951Z,102227.23
2018-11-23T04:00:07.053Z,102224.23
2018-11-23T04:02:35.759Z,102220.81
2018-11-23T04:05:05.097Z,102229.47
2018-11-23T04:07:34.874Z,102225.69
2018-11-23T04:10:03.134Z,102226.98
2018-11-23T04:12:32.371Z,102222.38
2018-11-23T04:15:00.680Z,102224.27
2018-11-23T04:17:29.645Z,102220.13
2018-11-23T04:19:58.205Z,102222.26
2018-11-23T04:22:26.532Z,102222.73
2018-11-23T04:24:54.759Z,102223.91
2018-11-23T04:27:23.073Z,102220.95
2018-11-23T04:29:52.077Z,102219.77
2018-11-23T04:32:20.574Z,102213.37
2018-11-23T04:34:48.811Z,102218.94
2018-11-23T04:37:17.094Z,102223.78
2018-11-23T04:39:45.338Z,102227.09
2018-11-23T04:42:13.596Z,102228.76
2018-11-23T04:44:42.499Z,102215.16
2018-11-23T04:47:11.487Z,102223.08
2018-11-23T04:49:40.003Z,102225.09
2018-11-23T04:52:08.995Z,102220.13
2018-11-23T04:54:37.436Z,102213.74
2018-11-23T04:57:05.806Z,102228.02
2018-11-23T04:59:34.187Z,102218.82
2018-11-23T05:02:02.429Z,102218.94
2018-11-23T05:04:30.735Z,102219.53
2018-11-23T05:06:58.954Z,102221.42
2018-11-23T05:09:27.166Z,102229.34
2018-11-23T05:11:55.423Z,102223.55
2018-11-23T05:14:23.659Z,102222.02
2018-11-23T05:16:51.891Z,102220.23
2018-11-23T05:19:20.159Z,102225.07
2018-11-23T05:21:48.369Z,102214.56
2018-11-23T05:24:16.621Z,102228.05
2018-11-23T05:26:45.142Z,102225.67
2018-11-23T05:29:13.388Z,102216.94
2018-11-23T05:31:41.607Z,102225.07
2018-11-23T05:34:09.837Z,102223.66
2018-11-23T05:36:38.346Z,102218.82
2018-11-23T05:39:09.417Z,102220.47
2018-11-23T05:41:38.262Z,102219.99
2018-11-23T05:44:06.604Z,102212.66
2018-11-23T05:46:36.096Z,102214.09
2018-11-23T05:49:04.448Z,102207.72
2018-11-23T05:51:33.050Z,102210.67
2018-11-23T05:54:01.306Z,102209.72
2018-11-23T05:56:30.735Z,102216.47
2018-11-23T05:59:00.670Z,102209.73
2018-11-23T06:01:29.023Z,102203.70
2018-11-23T06:03:57.616Z,102197.31
2018-11-23T06:06:27.029Z,102197.90
2018-11-23T06:08:56.222Z,102197.18
2018-11-23T06:11:25.163Z,102192.10
2018-11-23T06:13:53.856Z,102195.88
2018-11-23T06:16:22.380Z,102188.20
2018-11-23T06:18:51.001Z,102195.41
2018-11-23T06:21:19.451Z,102192.34
2018-11-23T06:23:47.941Z,102194.95
2018-11-23T06:26:22.686Z,102191.05
2018-11-23T06:28:51.834Z,102186.80
2018-11-23T06:31:21.032Z,102197.20
2018-11-23T06:33:50.021Z,102197.55
2018-11-23T06:36:18.891Z,102200.61
2018-11-23T06:38:48.555Z,102194.47
2018-11-23T06:41:17.278Z,102195.65
2018-11-23T06:43:47.485Z,102204.16
2018-11-23T06:46:15.739Z,102203.70
2018-11-23T06:48:44.342Z,102204.18
2018-11-23T06:51:12.624Z,102215.16
2018-11-23T06:53:40.932Z,102216.70
2018-11-23T06:56:10.446Z,102215.52
2018-11-23T06:58:38.779Z,102205.56
2018-11-23T07:01:07.410Z,102207.95
2018-11-23T07:03:35.653Z,102205.81
2018-11-23T07:06:03.902Z,102212.66
2018-11-23T07:08:32.104Z,102200.37
2018-11-23T07:11:01.645Z,102208.31
2018-11-23T07:13:31.318Z,102203.11
2018-11-23T07:15:59.601Z,102212.06
2018-11-23T07:18:28.111Z,102204.53
2018-11-23T07:20:56.508Z,102212.80
2018-11-23T07:23:24.871Z,102207.34
2018-11-23T07:25:53.371Z,102212.08
2018-11-23T07:28:21.665Z,102212.90
2018-11-23T07:30:49.947Z,102220.11
2018-11-23T07:33:18.203Z,102216.34
2018-11-23T07:35:46.531Z,102210.19
2018-11-23T07:38:14.820Z,102210.30
2018-11-23T07:40:54.998Z,102219.30
2018-11-23T07:43:23.359Z,102212.30
2018-11-23T07:45:51.650Z,102211.60
2018-11-23T07:48:19.997Z,102224.72
2018-11-23T07:50:48.619Z,102225.56
2018-11-23T07:53:17.170Z,102222.38
2018-11-23T07:55:45.823Z,102224.36
2018-11-23T07:58:14.958Z,102216.44
2018-11-23T08:00:44.869Z,102215.88
2018-11-23T08:03:13.238Z,102214.34
2018-11-23T08:05:42.159Z,102212.21
2018-11-23T08:08:10.459Z,102214.22
2018-11-23T08:10:38.042Z,102213.98
2018-11-23T08:13:06.792Z,102217.39
2018-11-23T08:15:35.489Z,102214.20
2018-11-23T08:18:04.667Z,102217.64
2018-11-23T08:20:33.679Z,102224.03
2018-11-23T08:23:02.445Z,102215.27
2018-11-23T08:25:30.964Z,102211.50
2018-11-23T08:27:59.226Z,102211.36
2018-11-23T08:30:31.696Z,102211.95
2018-11-23T08:33:00.929Z,102212.30
2018-11-23T08:35:30.178Z,102208.88
2018-11-23T08:37:59.475Z,102215.50
2018-11-23T08:40:28.409Z,102217.75
2018-11-23T08:42:57.689Z,102212.90
2018-11-23T08:45:28.026Z,102204.28
2018-11-23T08:47:58.377Z,102210.20
2018-11-23T08:50:36.601Z,102206.42
2018-11-23T08:53:06.184Z,102202.38
2018-11-23T08:55:34.485Z,102203.68
2018-11-23T08:58:03.865Z,102211.97
2018-11-23T09:00:32.625Z,102199.20
2018-11-23T09:03:02.252Z,102209.13
2018-11-23T09:05:30.672Z,102198.27
2018-11-23T09:07:59.962Z,102199.31
2018-11-23T09:10:31.071Z,102197.07
2018-11-23T09:13:01.406Z,102195.77
2018-11-23T09:15:29.755Z,102193.88
2018-11-23T09:17:57.987Z,102201.80
2018-11-23T09:20:26.259Z,102190.44
2018-11-23T09:22:54.532Z,102190.34
2018-11-23T09:25:23.421Z,102186.20
2018-11-23T09:27:51.715Z,102187.72
2018-11-23T09:30:22.921Z,102181.59
2018-11-23T09:32:53.377Z,102175.45
2018-11-23T09:35:21.771Z,102183.36
2018-11-23T09:37:50.530Z,102175.44
2018-11-23T09:40:20.945Z,102171.66
2018-11-23T09:42:49.516Z,102175.32
2018-11-23T09:45:20.689Z,102168.82
2018-11-23T09:47:50.786Z,102167.06
2018-11-23T09:50:23.576Z,102171.42
2018-11-23T09:52:53.682Z,102170.93
2018-11-23T09:55:24.042Z,102172.48
2018-11-23T09:57:52.504Z,102161.95
2018-11-23T10:00:30.101Z,102164.43
2018-11-23T10:02:59.209Z,102159.47
2018-11-23T10:05:28.345Z,102161.37
2018-11-23T10:07:58.645Z,102155.11
2018-11-23T10:10:27.632Z,102162.31
2018-11-23T10:12:57.442Z,102162.42
2018-11-23T10:15:26.970Z,102158.54
2018-11-23T10:17:57.672Z,102155.11
2018-11-23T10:23:19.232Z,102147.54
2018-11-23T10:25:47.964Z,102152.63
2018-11-23T10:28:16.504Z,102149.07
2018-11-23T10:30:45.622Z,102158.41
2018-11-23T10:33:14.199Z,102154.25
2018-11-23T10:35:42.560Z,102147.75
2018-11-23T10:38:12.464Z,102136.52
2018-11-23T10:40:41.171Z,102139.81
2018-11-23T10:43:10.355Z,102132.48
2018-11-23T10:45:39.481Z,102126.21
2018-11-23T10:48:08.636Z,102130.38
2018-11-23T10:50:38.464Z,102124.72
2018-11-23T10:53:07.786Z,102119.27
2018-11-23T10:55:37.608Z,102118.80
2018-11-23T10:58:06.997Z,102108.98
2018-11-23T11:00:41.020Z,102106.40
2018-11-23T11:03:15.233Z,102105.33
2018-11-23T11:05:49.266Z,102101.20
2018-11-23T11:08:18.340Z,102099.17
2018-11-23T11:10:46.648Z,102092.09
2018-11-23T11:13:14.905Z,102093.75
2018-11-23T11:15:43.182Z,102088.30
2018-11-23T11:18:11.424Z,102091.97
2018-11-23T11:20:39.722Z,102091.24
2018-11-23T11:23:08.009Z,102082.84
2018-11-23T11:25:36.319Z,102085.06
2018-11-23T11:28:04.552Z,102072.41
2018-11-23T11:30:32.834Z,102079.73
2018-11-23T11:33:01.093Z,102073.48
2018-11-23T11:35:29.396Z,102072.19
2018-11-23T11:37:57.677Z,102068.00
2018-11-23T11:40:25.932Z,102070.06
2018-11-23T11:42:55.122Z,102066.51
2018-11-23T11:45:23.401Z,102061.52
2018-11-23T11:47:51.668Z,102057.27
2018-11-23T11:50:19.888Z,102058.60
2018-11-23T11:52:48.730Z,102059.05
2018-11-23T11:55:18.228Z,102049.25
2018-11-23T11:57:47.299Z,102049.69
2018-11-23T12:00:19.219Z,102055.24
2018-11-23T12:02:48.055Z,102054.80
2018-11-23T12:05:16.292Z,102054.67
2018-11-23T12:07:44.599Z,102051.25
2018-11-23T12:10:18.656Z,102050.64
2018-11-23T12:12:46.890Z,102048.74
2018-11-23T12:15:15.665Z,102045.53
2018-11-23T12:17:44.076Z,102045.09
2018-11-23T12:20:14.593Z,102041.41
2018-11-23T12:22:42.992Z,102041.53
2018-11-23T12:25:11.548Z,102029.13
2018-11-23T12:27:39.807Z,102025.92
2018-11-23T12:30:10.339Z,102029.92
2018-11-23T12:32:38.577Z,102028.27
2018-11-23T12:35:08.130Z,102025.86
2018-11-23T12:37:36.410Z,102021.83
2018-11-23T12:40:04.949Z,102019.13
2018-11-23T12:42:33.284Z,102007.30
2018-11-23T12:45:01.566Z,102021.73
2018-11-23T12:47:29.847Z,102010.37
2018-11-23T12:49:58.145Z,102008.45
2018-11-23T12:52:26.422Z,102010.55
2018-11-23T12:54:54.754Z,102009.55
2018-11-23T12:57:23.117Z,102014.62
2018-11-23T12:59:51.390Z,102007.99
2018-11-23T13:02:20.886Z,102008.47
2018-11-23T13:04:49.204Z,102003.73
2018-11-23T13:07:17.434Z,102000.09
2018-11-23T13:09:45.616Z,101997.31
2018-11-23T13:15:06.946Z,101998.83
2018-11-23T13:17:35.172Z,102001.00
2018-11-23T13:20:03.681Z,101988.47
2018-11-23T13:22:32.172Z,101989.98
2018-11-23T13:25:00.437Z,101985.47
2018-11-23T13:27:28.682Z,101983.22
2018-11-23T13:29:56.935Z,101980.83
2018-11-23T13:32:26.092Z,101986.77
2018-11-23T13:34:54.482Z,101985.13
2018-11-23T13:37:22.790Z,101982.05
2018-11-23T13:39:51.011Z,101974.67
2018-11-23T13:42:19.239Z,101974.41
2018-11-23T13:44:47.538Z,101981.98
2018-11-23T13:47:15.857Z,101981.27
2018-11-23T13:49:44.095Z,101977.48
2018-11-23T13:52:12.366Z,101975.14
2018-11-23T13:54:40.597Z,101980.34
2018-11-23T14:00:01.837Z,101976.86
2018-11-23T14:02:30.200Z,101975.91
2018-11-23T14:04:59.762Z,101975.13
2018-11-23T14:10:23.066Z,101978.30
2018-11-23T14:12:52.399Z,101976.13
2018-11-23T14:15:23.025Z,101974.83
2018-11-23T14:17:52.239Z,101971.66
2018-11-23T14:20:22.487Z,101968.19
2018-11-23T14:22:51.527Z,101968.19
2018-11-23T14:25:21.164Z,101962.50
2018-11-23T14:27:50.052Z,101966.27
2018-11-23T14:30:38.167Z,101959.84
2018-11-23T14:33:06.428Z,101961.76
2018-11-23T14:35:35.413Z,101964.47
2018-11-23T14:38:04.005Z,101956.34
2018-11-23T14:40:32.289Z,101960.59
2018-11-23T14:43:00.670Z,101955.98
2018-11-23T14:45:30.381Z,101956.60
2018-11-23T14:48:01.456Z,101957.21
2018-11-23T14:50:30.997Z,101959.81
2018-11-23T14:52:59.827Z,101964.41
2018-11-23T14:55:28.307Z,101954.75
2018-11-23T14:57:56.820Z,101952.36
2018-11-23T15:00:29.687Z,101953.45
2018-11-23T15:02:59.181Z,101956.00
2018-11-23T15:05:27.557Z,101951.11
2018-11-23T15:07:56.732Z,101948.03
2018-11-23T15:10:37.719Z,101955.23
2018-11-23T15:13:06.944Z,101952.03
2018-11-23T15:15:38.448Z,101951.55
2018-11-23T15:18:07.701Z,101946.12
2018-11-23T15:20:42.042Z,101943.86
2018-11-23T15:23:13.907Z,101942.81
2018-11-23T15:25:43.397Z,101941.63
2018-11-23T15:28:13.414Z,101934.42
2018-11-23T15:33:42.554Z,101921.80
2018-11-23T15:36:11.368Z,101921.11
2018-11-23T15:38:39.645Z,101922.06
2018-11-23T15:41:08.125Z,101922.97
2018-11-23T15:43:36.412Z,101922.76
2018-11-23T15:46:04.947Z,101923.80
2018-11-23T15:48:33.165Z,101925.28
2018-11-23T15:51:08.922Z,101931.31
2018-11-23T15:53:37.319Z,101935.91
2018-11-23T15:56:05.942Z,101936.66
2018-11-23T15:58:34.200Z,101935.44
2018-11-23T16:01:02.514Z,101933.44
2018-11-23T16:03:53.177Z,101935.35
2018-11-23T16:06:21.966Z,101936.47
2018-11-23T16:08:50.690Z,101936.33
2018-11-23T16:11:19.276Z,101935.98
2018-11-23T16:13:47.824Z,101933.46
2018-11-23T16:16:16.094Z,101938.53
2018-11-23T16:18:44.428Z,101935.24
2018-11-23T16:21:12.722Z,101932.03
2018-11-23T16:23:42.464Z,101926.38
2018-11-23T16:26:12.202Z,101929.95
2018-11-23T16:28:40.722Z,101931.10
2018-11-23T16:31:10.476Z,101927.44
2018-11-23T16:33:39.155Z,101928.73
2018-11-23T16:36:07.648Z,101926.19
2018-11-23T16:38:36.650Z,101926.13
2018-11-23T16:41:06.483Z,101923.53
2018-11-23T16:43:34.837Z,101918.51
2018-11-23T16:46:03.468Z,101920.31
2018-11-23T16:51:24.832Z,101914.95
2018-11-23T16:53:53.140Z,101912.50
2018-11-23T16:56:22.071Z,101915.00
2018-11-23T16:58:51.521Z,101916.03
2018-11-23T17:01:19.902Z,101915.08
2018-11-23T17:03:48.349Z,101918.85
2018-11-23T17:06:17.475Z,101913.78
2018-11-23T17:08:45.915Z,101913.44
2018-11-23T17:11:15.150Z,101916.73
2018-11-23T17:13:43.479Z,101909.13
2018-11-23T17:16:11.885Z,101910.70
2018-11-23T17:18:40.632Z,101912.34
2018-11-23T17:21:08.915Z,101909.26
2018-11-23T17:23:37.346Z,101911.11
2018-11-23T17:26:05.982Z,101912.55
2018-11-23T17:28:34.562Z,101909.47
2018-11-23T17:33:57.002Z,101896.92
2018-11-23T17:36:26.016Z,101895.97
2018-11-23T17:38:54.876Z,101899.88
2018-11-23T17:41:23.786Z,101894.53
2018-11-23T17:43:52.545Z,101893.65
2018-11-23T17:46:20.839Z,101893.44
2018-11-23T17:48:49.101Z,101883.23
2018-11-23T17:51:17.436Z,101892.34
2018-11-23T17:53:46.620Z,101891.05
2018-11-23T17:56:13.956Z,101888.23
2018-11-23T17:58:42.197Z,101892.24
2018-11-23T18:01:10.497Z,101887.48
2018-11-23T18:03:38.833Z,101883.64
2018-11-23T18:06:07.631Z,101881.59
2018-11-23T18:08:38.970Z,101877.13
2018-11-23T18:11:06.993Z,101881.52
2018-11-23T18:13:37.256Z,101881.93
2018-11-23T18:16:06.298Z,101879.67
2018-11-23T18:18:35.322Z,101886.42
2018-11-23T18:21:04.394Z,101883.58
2018-11-23T18:23:33.690Z,101875.77
2018-11-23T18:26:03.242Z,101875.66
2018-11-23T18:28:31.744Z,101875.52
2018-11-23T18:31:01.386Z,101876.83
2018-11-23T18:33:29.965Z,101875.05
2018-11-23T18:35:59.256Z,101876.97
2018-11-23T18:38:36.052Z,101872.98
2018-11-23T18:41:05.231Z,101877.52
2018-11-23T18:43:33.507Z,101878.68
2018-11-23T18:46:01.841Z,101878.20
2018-11-23T18:48:30.207Z,101875.91
2018-11-23T18:50:58.490Z,101878.20
2018-11-23T18:53:26.732Z,101882.01
2018-11-23T18:55:55.032Z,101881.91
2018-11-23T18:58:23.267Z,101880.70
2018-11-23T19:00:51.595Z,101873.47
2018-11-23T19:03:19.993Z,101868.81
2018-11-23T19:05:49.354Z,101865.31
2018-11-23T19:08:17.610Z,101869.16
2018-11-23T19:10:48.988Z,101861.34
2018-11-23T19:13:17.678Z,101862.44
2018-11-23T19:15:46.008Z,101868.53
2018-11-23T19:18:14.380Z,101861.95
2018-11-23T19:20:42.679Z,101854.14
2018-11-23T19:23:17.445Z,101852.62
2018-11-23T19:25:45.791Z,101847.90
2018-11-23T19:28:14.044Z,101843.58
2018-11-23T19:33:36.766Z,101829.91
2018-11-23T19:36:05.145Z,101833.09
2018-11-23T19:38:35.317Z,101823.94
2018-11-23T19:41:03.699Z,101826.13
2018-11-23T19:43:33.850Z,101827.02
2018-11-23T19:46:03.679Z,101826.23
2018-11-23T19:48:32.854Z,101810.56
2018-11-23T19:51:01.895Z,101806.45
2018-11-23T19:53:30.452Z,101791.75
2018-11-23T19:55:59.480Z,101794.02
2018-11-23T19:58:28.818Z,101786.06
2018-11-23T20:00:57.482Z,101790.93
2018-11-23T20:03:28.875Z,101783.59
2018-11-23T20:05:58.534Z,101784.44
2018-11-23T20:08:27.774Z,101773.67
2018-11-23T20:10:57.081Z,101774.09
2018-11-23T20:13:25.751Z,101780.03
2018-11-23T20:15:54.572Z,101772.70
2018-11-23T20:18:33.363Z,101764.40
2018-11-23T20:21:02.037Z,101759.91
2018-11-23T20:23:30.689Z,101758.32
2018-11-23T20:25:59.065Z,101766.34
2018-11-23T20:31:20.032Z,101766.62
2018-11-23T20:33:48.395Z,101759.41
2018-11-23T20:36:17.229Z,101760.03
2018-11-23T20:38:46.714Z,101756.68
2018-11-23T20:41:15.019Z,101758.60
2018-11-23T20:43:43.289Z,101752.57
2018-11-23T20:46:11.541Z,101749.48
2018-11-23T20:48:39.882Z,101749.00
2018-11-23T20:51:09.509Z,101760.24
2018-11-23T20:53:37.891Z,101753.11
2018-11-23T20:56:06.225Z,101745.55
2018-11-23T20:58:35.160Z,101747.48
2018-11-23T21:03:57.301Z,101743.34
2018-11-23T21:06:25.895Z,101741.03
2018-11-23T21:08:54.486Z,101739.22
2018-11-23T21:11:22.848Z,101741.91
2018-11-23T21:13:51.283Z,101741.34
2018-11-23T21:16:20.530Z,101745.59
2018-11-23T21:18:50.400Z,101742.45
2018-11-23T21:21:18.734Z,101739.92
2018-11-23T21:23:47.083Z,101735.59
2018-11-23T21:26:15.812Z,101736.55
2018-11-23T21:28:44.989Z,101743.92
2018-11-23T21:31:13.751Z,101741.84
2018-11-23T21:33:42.536Z,101741.36
2018-11-23T21:36:11.480Z,101735.81
2018-11-23T21:38:39.945Z,101733.55
2018-11-23T21:41:09.588Z,101735.48
2018-11-23T21:43:38.123Z,101727.23
2018-11-23T21:46:06.478Z,101724.57
2018-11-23T21:48:35.755Z,101725.67
2018-11-23T21:51:04.184Z,101719.30
2018-11-23T21:53:32.509Z,101729.84
2018-11-23T21:56:00.741Z,101724.14
2018-11-23T21:58:28.973Z,101718.20
2018-11-23T22:00:57.259Z,101715.79
2018-11-23T22:03:25.487Z,101710.52
2018-11-23T22:05:53.752Z,101712.98
2018-11-23T22:08:22.106Z,101713.33
2018-11-23T22:10:50.479Z,101707.35
2018-11-23T22:13:18.718Z,101713.61
2018-11-23T22:15:47.814Z,101722.25
2018-11-23T22:18:16.175Z,101718.96
2018-11-23T22:20:44.949Z,101720.04
2018-11-23T22:23:14.625Z,101714.83
2018-11-23T22:25:43.653Z,101706.61
2018-11-23T22:28:11.973Z,101699.56
2018-11-23T22:30:41.681Z,101698.45
2018-11-23T22:33:11.642Z,101697.49
2018-11-23T22:35:40.213Z,101693.87
2018-11-23T22:38:08.555Z,101688.32
2018-11-23T22:40:37.492Z,101693.87
2018-11-23T22:43:07.591Z,101695.99
2018-11-23T22:45:37.128Z,101688.80
2018-11-23T22:48:05.444Z,101680.84
2018-11-23T22:50:34.001Z,101683.16
2018-11-23T22:53:02.356Z,101684.04
2018-11-23T22:55:31.952Z,101678.30
2018-11-23T22:58:01.326Z,101683.98
2018-11-23T23:00:35.882Z,101674.38
2018-11-23T23:03:04.447Z,101673.42
2018-11-23T23:05:33.623Z,101678.63
2018-11-23T23:08:01.892Z,101681.23
2018-11-23T23:10:31.490Z,101674.30
2018-11-23T23:12:59.817Z,101665.03
2018-11-23T23:15:28.146Z,101676.16
2018-11-23T23:17:57.281Z,101671.92
2018-11-23T23:20:25.530Z,101672.84
2018-11-23T23:22:53.775Z,101679.84
2018-11-23T23:25:22.059Z,101677.81
2018-11-23T23:27:50.331Z,101682.20
2018-11-23T23:30:19.011Z,101674.13
2018-11-23T23:32:48.137Z,101678.05
2018-11-23T23:35:17.063Z,101671.44
2018-11-23T23:37:45.436Z,101667.14
2018-11-23T23:40:15.830Z,101655.56
2018-11-23T23:42:44.118Z,101652.61
2018-11-23T23:45:14.263Z,101651.27
2018-11-23T23:47:42.574Z,101654.98
2018-11-23T23:50:16.215Z,101652.09
2018-11-23T23:52:44.494Z,101654.70
2018-11-23T23:55:12.771Z,101648.19
2018-11-23T23:57:41.891Z,101648.05
